Latest Weather Observations for Mackay

IDQ60801

Issued at 1:02 pm EST Saturday 18 April 2015 (issued every 30 minutes, with the page automatically refreshed every 10 minutes)

About weather observations | Map of weather stations | Latest weather observations for QLD | Other Formats
Station Details ID: 033119 Name: MACKAY M.O Lat: -21.12 Lon: 149.22 Height: 30.26 m
Data from the previous 72 hours. | See also: Recent months at Mackay
Date/Time
EST
Temp
°C
App
Temp
°C
Dew
Point
Rel
Hum
%
Delta-T
°C
Wind Press
QNH
hPa
Press
MSL
hPa
Rain
since 9 am
mm
Dir
 
Spd
km/h
Gust
km/h
Spd
kts
Gust
kts
18/12:30pm 27.7 29.7 20.7 65 4.6 ESE 11 20 6 11 1016.9 1016.7 0.0
18/12:00pm 27.8 29.3 20.5 64 4.8 ESE 13 22 7 12 1017.4 1017.2 0.0
18/11:30am 27.6 28.9 20.1 63 4.9 ESE 13 17 7 9 1018.0 1017.8 0.0
18/11:00am 27.6 28.5 19.2 60 5.4 ESE 13 20 7 11 1018.5 1018.3 0.0
18/10:30am 28.0 29.2 19.9 61 5.3 E 13 20 7 11 1018.7 1018.5 0.0
18/10:00am 27.2 27.3 19.1 61 5.2 E 17 26 9 14 1018.7 1018.5 0.0
18/09:30am 27.8 27.8 20.2 63 5.0 E 20 28 11 15 1018.4 1018.2 0.0
18/09:00am 27.6 27.2 19.4 61 5.3 E 20 30 11 16 1018.4 1018.2 0.2
18/08:30am 26.9 27.2 19.5 64 4.8 E 17 24 9 13 1018.2 1018.0 0.2
18/08:00am 26.5 26.4 19.5 65 4.5 E 19 30 10 16 1017.8 1017.6 0.2
18/07:30am 26.2 26.3 19.2 65 4.5 E 17 26 9 14 1017.3 1017.1 0.2
18/07:00am 25.5 25.1 19.3 68 4.0 E 20 30 11 16 1017.0 1016.8 0.2
18/06:30am 25.5 24.7 18.4 65 4.5 E 20 32 11 17 1016.6 1016.4 0.2
18/05:30am 25.1 25.3 20.2 74 3.2 E 19 28 10 15 1016.1 1015.9 0.2
18/05:00am 25.3 25.5 20.6 75 3.1 E 20 32 11 17 1015.8 1015.6 0.2
18/04:30am 25.1 25.0 20.0 73 3.3 E 20 32 11 17 1015.6 1015.4 0.2
18/04:00am 25.2 25.0 19.8 72 3.5 E 20 28 11 15 1015.7 1015.5 0.2
18/03:30am 25.4 25.8 19.8 71 3.6 E 17 26 9 14 1016.1 1015.9 0.2
18/03:00am 25.5 24.9 18.8 66 4.3 E 20 28 11 15 1016.3 1016.1 0.2
18/02:30am 25.5 25.1 18.8 66 4.3 E 19 26 10 14 1016.5 1016.3 0.2
18/02:00am 25.4 24.8 19.7 70 3.7 E 22 32 12 17 1016.5 1016.3 0.2
18/01:30am 25.7 24.9 19.3 67 4.1 E 22 32 12 17 1016.6 1016.4 0.2
18/01:00am 25.7 25.1 19.8 70 3.8 E 22 33 12 18 1016.8 1016.6 0.2
18/12:30am 25.5 25.7 20.6 74 3.2 E 20 32 11 17 1017.0 1016.8 0.2
 
Date/Time
EST
Temp
°C
App
Temp
°C
Dew
Point
Rel
Hum
%
Delta-T
°C
Wind Press
QNH
hPa
Press
MSL
hPa
Rain
since 9 am
mm
Dir
 
Spd
km/h
Gust
km/h
Spd
kts
Gust
kts
17/11:30pm 25.5 26.0 20.9 75 3.0 E 19 30 10 16 1017.3 1017.1 0.2
17/11:00pm 25.5 24.9 20.6 74 3.2 E 24 33 13 18 1017.5 1017.3 0.2
17/10:30pm 25.7 25.9 21.3 76 2.9 E 22 33 12 18 1017.5 1017.3 0.2
17/10:00pm 25.6 25.5 21.4 77 2.8 E 24 35 13 19 1017.5 1017.3 0.2
17/09:30pm 25.9 26.8 20.9 74 3.3 E 17 26 9 14 1017.7 1017.5 0.2
17/09:00pm 25.9 26.7 20.7 73 3.4 E 17 30 9 16 1017.6 1017.4 0.2
17/08:30pm 26.0 27.0 20.3 71 3.7 ESE 15 28 8 15 1017.5 1017.3 0.2
17/08:00pm 25.9 26.4 20.1 70 3.8 ESE 17 26 9 14 1017.4 1017.2 0.2
17/07:30pm 25.8 26.9 20.4 72 3.5 E 15 24 8 13 1017.0 1016.8 0.2
17/07:00pm 25.9 26.2 19.7 68 4.0 ESE 17 28 9 15 1016.8 1016.6 0.2
17/06:30pm 25.8 27.0 19.8 69 3.9 ESE 13 26 7 14 1016.5 1016.3 0.2
17/05:30pm 25.9 26.6 19.6 68 4.1 ESE 15 26 8 14 1015.9 1015.7 0.2
17/05:00pm 26.1 26.3 19.3 66 4.4 ESE 17 26 9 14 1015.8 1015.6 0.2
17/04:30pm 26.4 26.5 19.1 64 4.7 ESE 17 30 9 16 1015.7 1015.5 0.2
17/04:00pm 26.7 27.1 19.8 66 4.5 ESE 17 28 9 15 1015.6 1015.4 0.2
17/03:30pm 26.7 28.0 20.8 70 3.9 ESE 15 26 8 14 1015.7 1015.5 0.2
17/03:00pm 27.2 27.8 20.3 66 4.5 ESE 17 26 9 14 1015.7 1015.5 0.2
17/02:30pm 27.3 28.2 20.1 64 4.7 ESE 15 30 8 16 1016.0 1015.8 0.2
17/02:00pm 27.3 27.8 20.1 64 4.7 ESE 17 32 9 17 1016.1 1015.9 0.2
17/01:30pm 27.4 27.6 19.4 61 5.2 ESE 17 28 9 15 1016.5 1016.3 0.2
17/01:00pm 27.3 27.7 19.9 64 4.8 ESE 17 28 9 15 1016.8 1016.6 0.2
17/12:30pm 25.8 27.0 22.2 80 2.4 SSE 19 33 10 18 1017.3 1017.1 0.2
17/12:00pm 27.4 27.9 20.0 64 4.8 ESE 17 33 9 18 1017.7 1017.5 0.2
17/11:30am 25.6 26.6 22.2 81 2.3 SSE 20 33 11 18 1018.2 1018.0 0.2
17/11:00am 26.0 26.5 22.6 81 2.3 SSE 24 39 13 21 1018.7 1018.5 0.2
17/10:30am 25.0 24.9 22.2 84 1.9 SSE 26 41 14 22 1019.1 1018.9 0.2
17/10:00am 26.1 26.3 22.7 81 2.3 SSE 26 43 14 23 1019.3 1019.1 0.0
17/09:30am 24.5 24.4 22.3 87 1.5 SSE 26 39 14 21 1019.5 1019.3 0.0
17/09:00am 23.7 24.8 21.9 90 1.2 S 19 30 10 16 1019.6 1019.4 4.6
17/08:30am 23.6 24.0 21.8 90 1.2 S 22 35 12 19 1019.4 1019.2 4.6
17/08:00am 23.7 24.6 21.9 90 1.2 SSE 20 33 11 18 1019.3 1019.1 4.6
17/07:30am 22.9 24.0 22.0 95 0.6 SSE 19 30 10 16 1019.0 1018.8 4.6
17/07:00am 21.8 23.3 21.3 97 0.3 S 15 22 8 12 1018.7 1018.5 4.6
17/06:30am 21.6 22.6 21.0 96 0.4 SSW 17 26 9 14 1018.4 1018.2 4.6
17/06:00am 22.1 23.6 21.2 95 0.6 S 15 20 8 11 1018.2 1018.0 4.0
17/05:30am 22.7 23.7 21.0 90 1.1 ENE 17 28 9 15 1018.0 1017.8 3.8
17/05:00am 24.5 25.3 20.7 79 2.5 ESE 17 30 9 16 1017.8 1017.6 3.0
17/04:30am 24.7 24.5 18.5 68 3.9 SE 17 28 9 15 1017.4 1017.2 3.0
17/04:00am 25.0 24.5 18.7 68 4.0 SE 19 33 10 18 1017.4 1017.2 3.0
17/03:30am 24.9 24.7 19.3 71 3.6 ESE 19 28 10 15 1017.4 1017.2 3.0
17/03:00am 24.8 24.3 19.0 70 3.7 ESE 20 32 11 17 1017.6 1017.4 3.0
17/02:30am 24.0 24.0 19.8 77 2.7 ESE 19 32 10 17 1017.7 1017.5 3.0
17/02:00am 25.0 25.0 18.9 69 3.9 SE 17 30 9 16 1018.0 1017.8 3.0
17/01:30am 25.2 24.6 18.8 67 4.1 SE 20 32 11 17 1018.4 1018.2 3.0
17/01:00am 25.1 24.9 19.3 70 3.7 SE 19 30 10 16 1018.8 1018.6 3.0
17/12:30am 25.3 24.7 18.9 67 4.1 ESE 20 35 11 19 1019.2 1019.0 3.0
17/12:00am 25.6 24.4 18.5 65 4.5 ESE 22 35 12 19 1019.5 1019.3 3.0
 
Date/Time
EST
Temp
°C
App
Temp
°C
Dew
Point
Rel
Hum
%
Delta-T
°C
Wind Press
QNH
hPa
Press
MSL
hPa
Rain
since 9 am
mm
Dir
 
Spd
km/h
Gust
km/h
Spd
kts
Gust
kts
16/11:30pm 25.8 25.8 20.1 71 3.7 ESE 20 35 11 19 1019.6 1019.4 3.0
16/11:00pm 25.5 25.2 19.6 70 3.8 SE 20 33 11 18 1019.8 1019.6 3.0
16/10:30pm 23.8 25.7 21.4 86 1.6 S 13 19 7 10 1020.1 1019.9 3.0
16/10:00pm 24.0 26.3 21.3 85 1.8 ESE 11 17 6 9 1020.4 1020.2 3.0
16/09:30pm 23.9 24.6 21.5 86 1.6 E 20 30 11 16 1020.6 1020.4 3.0
16/09:00pm 23.4 23.9 20.1 82 2.1 ESE 17 28 9 15 1020.4 1020.2 3.0
16/08:30pm 24.9 25.7 19.1 70 3.7 ESE 13 22 7 12 1020.3 1020.1 3.0
16/08:00pm 24.9 24.3 18.9 69 3.8 ESE 20 30 11 16 1020.0 1019.8 3.0
16/07:30pm 25.1 24.0 18.6 67 4.1 SE 22 35 12 19 1019.8 1019.6 3.0
16/07:00pm 25.1 25.1 20.2 74 3.2 ESE 20 35 11 19 1019.4 1019.2 3.0
16/06:30pm 24.8 24.6 19.8 74 3.2 ESE 20 35 11 19 1019.2 1019.0 3.0
16/06:00pm 25.0 25.4 20.9 78 2.7 SE 20 35 11 19 1018.9 1018.7 3.0
16/05:30pm 25.0 25.4 20.6 76 2.9 SE 19 32 10 17 1018.7 1018.5 3.0
16/05:00pm 25.5 25.7 20.6 74 3.2 SE 20 33 11 18 1018.4 1018.2 3.0
16/04:30pm 25.7 26.1 21.0 75 3.1 SSE 20 32 11 17 1018.3 1018.1 3.0
16/04:00pm 26.2 27.1 20.9 72 3.5 SE 17 35 9 19 1018.3 1018.1 3.0
16/03:30pm 25.9 26.0 20.4 71 3.6 SE 20 32 11 17 1018.1 1017.9 3.0
16/03:06pm 26.2 26.7 21.2 74 3.3 SE 20 30 11 16 1018.2 1018.0 3.0
16/03:00pm 26.1 26.7 21.1 74 3.3 SE 19 30 10 16 1018.3 1018.1 3.0
16/02:30pm 25.8 26.0 22.1 80 2.5 SSE 24 33 13 18 1018.3 1018.1 2.8
16/02:00pm 25.0 25.8 22.5 86 1.7 SSE 22 35 12 19 1018.5 1018.3 2.8
16/01:30pm 22.9 25.2 22.0 95 0.6 SSE 13 20 7 11 1018.9 1018.7 2.8
16/01:00pm 25.3 25.8 21.2 78 2.7 SSE 20 28 11 15 1019.3 1019.1 1.8
16/12:30pm 24.9 24.9 21.6 82 2.2 SSE 24 37 13 20 1019.5 1019.3 1.6
16/12:00pm 24.9 25.4 21.9 83 2.0 SSE 22 37 12 20 1020.0 1019.8 1.6
16/11:30am 22.9 23.1 22.0 95 0.6 SE 24 39 13 21 1020.6 1020.4 1.6
16/11:20am 24.4 23.9 21.5 84 1.9 SSE 26 35 14 19 1020.9 1020.7 0.2
16/11:00am 25.5 25.0 21.4 78 2.7 SSE 26 39 14 21 1021.0 1020.8 0.2
16/10:30am 25.1 24.2 21.5 80 2.4 SSE 28 41 15 22 1021.4 1021.2 0.2
16/10:00am 24.8 23.7 21.1 80 2.4 SSE 28 43 15 23 1021.8 1021.6 0.0
16/09:30am 24.5 23.6 21.5 83 2.0 SSE 28 43 15 23 1021.6 1021.4 0.0
16/09:00am 24.6 24.9 21.6 83 2.0 SSE 22 32 12 17 1021.7 1021.5 20.6
16/08:30am 22.9 22.4 20.7 87 1.4 SSE 24 35 13 19 1021.6 1021.4 20.6
16/08:00am 22.2 21.7 20.7 91 1.0 SSE 24 35 13 19 1021.4 1021.2 20.6
16/07:30am 21.7 21.6 20.8 95 0.6 S 22 35 12 19 1021.2 1021.0 20.6
16/07:00am 21.5 21.0 20.7 95 0.5 S 24 32 13 17 1021.1 1020.9 20.4
16/06:30am 21.6 20.8 20.8 95 0.5 S 26 35 14 19 1020.8 1020.6 19.8
16/06:00am 21.7 22.2 21.2 97 0.3 S 20 30 11 16 1020.5 1020.3 19.2
16/05:30am 21.9 23.6 21.6 98 0.2 S 15 22 8 12 1020.5 1020.3 16.8
16/05:08am 22.3 25.1 21.5 95 0.5 SE 9 17 5 9 1020.4 1020.2 11.0
16/05:00am 22.4 24.4 21.6 95 0.5 SE 13 20 7 11 1020.1 1019.9 8.8
16/04:30am 22.5 23.5 21.1 92 0.9 SE 17 41 9 22 1020.0 1019.8 7.2
16/04:00am 22.8 25.7 21.7 93 0.7 ESE 9 17 5 9 1020.0 1019.8 6.6
16/03:30am 22.2 23.2 21.0 93 0.8 ENE 17 32 9 17 1020.1 1019.9 6.4
16/03:00am 23.1 23.6 21.1 88 1.3 SE 20 39 11 21 1020.3 1020.1 5.4
16/02:30am 24.3 24.6 20.3 78 2.6 SE 19 28 10 15 1020.2 1020.0 4.8
16/02:00am 24.1 24.7 20.2 79 2.5 SE 17 30 9 16 1020.5 1020.3 4.8
16/01:30am 24.0 24.3 19.5 76 2.9 ESE 17 26 9 14 1020.7 1020.5 4.8
16/01:00am 23.7 24.1 21.7 88 1.3 E 22 37 12 20 1020.9 1020.7 4.8
16/12:30am 23.5 24.5 21.7 90 1.2 SSE 19 32 10 17 1021.2 1021.0 4.6
16/12:00am 23.0 25.2 21.9 93 0.7 SE 13 19 7 10 1021.5 1021.3 4.6
 
Date/Time
EST
Temp
°C
App
Temp
°C
Dew
Point
Rel
Hum
%
Delta-T
°C
Wind Press
QNH
hPa
Press
MSL
hPa
Rain
since 9 am
mm
Dir
 
Spd
km/h
Gust
km/h
Spd
kts
Gust
kts
15/11:30pm 23.1 23.2 21.9 93 0.8 SSE 24 33 13 18 1021.7 1021.5 4.2
15/11:00pm 22.5 25.1 21.9 96 0.4 SE 11 20 6 11 1022.0 1021.8 4.2
15/10:30pm 23.4 24.5 21.9 91 1.0 SSE 19 33 10 18 1022.3 1022.1 0.8
15/10:00pm 23.5 24.5 21.1 86 1.6 SSE 17 28 9 15 1022.0 1021.8 0.0
15/09:30pm 23.5 24.5 20.3 82 2.1 SSE 15 22 8 12 1021.9 1021.7 0.0
15/09:00pm 24.5 24.8 20.8 80 2.4 ESE 20 35 11 19 1021.7 1021.5 0.0
15/08:30pm 25.0 25.2 20.1 74 3.2 ESE 19 30 10 16 1021.5 1021.3 0.0
15/08:00pm 24.9 24.3 18.9 69 3.8 E 20 32 11 17 1021.1 1020.9 0.0
15/07:30pm 24.1 25.6 21.2 84 1.9 ESE 15 24 8 13 1021.0 1020.8 0.0
15/07:00pm 25.1 25.3 20.2 74 3.2 ESE 19 30 10 16 1020.8 1020.6 0.0
15/06:30pm 25.3 25.3 19.7 71 3.6 SE 19 28 10 15 1020.5 1020.3 0.0
15/06:00pm 25.2 25.5 20.4 74 3.1 ESE 19 28 10 15 1020.4 1020.2 0.0
15/05:30pm 25.5 26.4 20.9 75 3.0 SE 17 30 9 16 1019.9 1019.7 0.0
15/05:00pm 26.0 26.4 19.8 68 4.0 SSE 17 30 9 16 1019.7 1019.5 0.0
15/04:30pm 26.4 25.6 18.0 60 5.3 SE 19 30 10 16 1019.5 1019.3 0.0
15/04:00pm 26.6 26.0 18.8 62 5.0 SE 20 32 11 17 1019.4 1019.2 0.0
15/03:30pm 26.9 26.6 19.1 62 5.0 SE 19 30 10 16 1019.2 1019.0 0.0
15/03:00pm 27.1 26.8 19.2 62 5.1 SE 19 32 10 17 1019.1 1018.9 0.0
15/02:30pm 27.3 27.4 19.9 64 4.8 SSE 19 30 10 16 1019.0 1018.8 0.0
15/02:00pm 27.0 26.8 20.6 68 4.2 SSE 22 37 12 20 1019.1 1018.9 0.0
15/01:30pm 27.2 27.7 20.8 68 4.2 SE 19 32 10 17 1019.4 1019.2 0.0

Other Formats:

Comma delimited format used in spreadsheet applications
http://www.bom.gov.au/fwo/IDQ60801/IDQ60801.94367.axf

JavaScript Object Notation format (JSON) in row-major order
http://www.bom.gov.au/fwo/IDQ60801/IDQ60801.94367.json